Time;durP1;ratioP1;P1;durP2;ratioP2;P2;SDS_P1;SDS_P2;PMS_P1;PMS_P2;Temp;Humidity;BMP_temperature;BMP_pressure;BME280_temperature;BME280_humidity;BME280_pressure;Samples;Min_cycle;Max_cycle;Signal;HPM_P1;HPM_P2
2023/11/08 00:02:18;;;;;;;2.25;1.40;;;18.40;51.80;;;;;;5055386;28;20757;-61
2023/11/08 00:04:45;;;;;;;3.25;1.40;;;18.40;51.70;;;;;;5056115;28;20218;-62
2023/11/08 00:07:12;;;;;;;3.75;1.35;;;18.30;51.70;;;;;;5055135;28;20657;-62
2023/11/08 00:09:39;;;;;;;4.80;1.52;;;18.30;51.70;;;;;;5055879;28;20216;-60
2023/11/08 00:12:09;;;;;;;3.78;1.60;;;18.30;51.70;;;;;;5055710;28;20199;-62
2023/11/08 00:14:36;;;;;;;4.40;1.48;;;18.30;51.70;;;;;;5055082;28;20215;-61
2023/11/08 00:17:03;;;;;;;3.67;1.38;;;18.30;51.70;;;;;;5055563;28;20184;-63
2023/11/08 00:19:30;;;;;;;3.72;1.75;;;18.30;51.70;;;;;;5055541;28;20767;-62
2023/11/08 00:21:58;;;;;;;4.35;1.52;;;18.30;51.70;;;;;;5055138;28;20241;-61
2023/11/08 00:24:27;;;;;;;4.85;1.42;;;18.30;51.70;;;;;;5055500;28;20588;-61
2023/11/08 00:26:54;;;;;;;6.43;1.40;;;18.30;51.70;;;;;;5055438;28;20214;-61
2023/11/08 00:29:22;;;;;;;3.28;1.15;;;18.30;51.70;;;;;;5054711;28;20223;-62
2023/11/08 00:31:50;;;;;;;5.18;1.70;;;18.30;51.70;;;;;;5055352;28;20234;-62
2023/11/08 00:34:17;;;;;;;2.80;1.17;;;18.30;51.70;;;;;;5055339;28;20580;-62
2023/11/08 00:36:45;;;;;;;2.53;1.13;;;18.30;51.80;;;;;;5054870;28;20189;-61
2023/11/08 00:39:15;;;;;;;5.90;1.38;;;18.30;51.80;;;;;;5054902;28;20567;-61
2023/11/08 00:41:42;;;;;;;5.32;1.67;;;18.30;51.70;;;;;;5054965;28;20406;-62
2023/11/08 00:44:09;;;;;;;3.70;1.42;;;18.30;51.70;;;;;;5054439;28;20646;-61
2023/11/08 00:46:38;;;;;;;3.13;1.40;;;18.20;51.70;;;;;;5054695;28;20644;-61
2023/11/08 00:49:05;;;;;;;3.40;1.27;;;18.20;51.70;;;;;;5055049;28;20191;-62
2023/11/08 00:51:32;;;;;;;4.43;1.50;;;18.20;51.70;;;;;;5054672;28;20635;-62
2023/11/08 00:54:00;;;;;;;5.35;1.55;;;18.20;51.70;;;;;;5054546;28;20249;-62
2023/11/08 00:56:27;;;;;;;3.17;1.30;;;18.20;51.70;;;;;;5054898;28;20202;-61
2023/11/08 00:58:54;;;;;;;6.47;1.63;;;18.20;51.60;;;;;;5054497;28;20195;-62
2023/11/08 01:01:22;;;;;;;4.35;1.73;;;18.20;51.70;;;;;;5054546;28;20765;-62
2023/11/08 01:03:50;;;;;;;2.95;1.20;;;18.20;51.70;;;;;;5054294;28;20246;-62
2023/11/08 01:06:17;;;;;;;3.10;1.25;;;18.20;51.70;;;;;;5053616;28;20706;-62
2023/11/08 01:08:44;;;;;;;3.63;1.25;;;18.20;51.70;;;;;;5054715;28;20188;-62
2023/11/08 01:11:11;;;;;;;3.50;1.42;;;18.20;51.70;;;;;;5054819;28;20661;-62
2023/11/08 01:13:38;;;;;;;4.72;1.50;;;18.20;51.70;;;;;;5054039;28;20569;-62
2023/11/08 01:16:06;;;;;;;2.35;1.13;;;18.20;51.60;;;;;;5054487;28;20644;-61
2023/11/08 01:18:34;;;;;;;3.92;1.33;;;18.20;51.70;;;;;;5054434;28;20192;-62
2023/11/08 01:21:03;;;;;;;4.05;1.30;;;18.20;51.60;;;;;;5053996;28;20234;-62
2023/11/08 01:23:30;;;;;;;3.72;1.20;;;18.20;51.70;;;;;;5054401;28;20192;-61
2023/11/08 01:25:57;;;;;;;5.38;1.63;;;18.20;51.70;;;;;;5054544;28;20218;-62
2023/11/08 01:28:24;;;;;;;6.60;1.33;;;18.20;52.30;;;;;;5053931;28;20194;-62
2023/11/08 01:30:51;;;;;;;4.25;1.30;;;18.20;51.70;;;;;;5054427;28;20298;-62
2023/11/08 01:33:18;;;;;;;3.97;1.20;;;18.20;51.70;;;;;;5054200;28;20192;-62
2023/11/08 01:35:45;;;;;;;6.65;1.30;;;18.20;51.70;;;;;;5053996;28;20226;-62
2023/11/08 01:38:13;;;;;;;3.38;1.38;;;18.20;52.40;;;;;;5054207;28;20190;-62
2023/11/08 01:40:43;;;;;;;4.18;1.50;;;18.20;52.30;;;;;;5053913;28;20775;-62
2023/11/08 01:43:10;;;;;;;3.17;1.50;;;18.20;51.70;;;;;;5053621;28;20223;-62
2023/11/08 01:45:38;;;;;;;5.75;1.48;;;18.10;51.60;;;;;;5054166;28;20223;-62
2023/11/08 01:48:06;;;;;;;4.53;1.20;;;18.20;51.70;;;;;;5053697;28;20531;-61
2023/11/08 01:50:33;;;;;;;5.07;1.25;;;18.10;51.60;;;;;;5053251;28;20216;-62
2023/11/08 01:53:01;;;;;;;4.95;1.10;;;18.20;52.30;;;;;;5053513;28;20658;-62
2023/11/08 01:55:29;;;;;;;3.03;1.20;;;18.10;51.60;;;;;;5053989;28;20215;-62
2023/11/08 01:57:59;;;;;;;4.63;1.48;;;18.10;51.60;;;;;;5053351;28;20184;-62
2023/11/08 02:00:28;;;;;;;3.75;1.40;;;18.10;51.60;;;;;;5053400;28;20224;-62
2023/11/08 02:02:55;;;;;;;3.42;1.13;;;18.10;51.60;;;;;;5053103;28;20835;-62
2023/11/08 02:05:23;;;;;;;4.63;1.30;;;18.10;51.60;;;;;;5053063;28;20310;-62
2023/11/08 02:07:50;;;;;;;4.95;1.40;;;18.10;51.60;;;;;;5053480;28;20188;-61
2023/11/08 02:10:16;;;;;;;4.18;1.20;;;18.10;51.60;;;;;;5053511;28;20302;-62
2023/11/08 02:12:47;;;;;;;5.75;1.40;;;18.10;51.60;;;;;;5053098;28;20218;-61
2023/11/08 02:15:15;;;;;;;3.00;1.10;;;18.10;51.60;;;;;;5053014;28;20587;-62
2023/11/08 02:17:42;;;;;;;2.70;1.10;;;18.10;51.60;;;;;;5052965;28;20669;-61
2023/11/08 02:20:10;;;;;;;3.58;1.17;;;18.10;51.60;;;;;;5052885;28;20223;-61
2023/11/08 02:22:37;;;;;;;3.85;1.60;;;18.10;51.60;;;;;;5053099;28;20215;-62
2023/11/08 02:25:07;;;;;;;2.95;1.30;;;18.10;51.60;;;;;;5053191;28;20215;-60
2023/11/08 02:27:34;;;;;;;3.97;1.33;;;18.10;51.60;;;;;;5052452;28;20717;-62
2023/11/08 02:30:01;;;;;;;3.15;1.00;;;18.10;51.60;;;;;;5052753;28;20215;-62
2023/11/08 02:32:28;;;;;;;5.22;1.40;;;18.10;51.60;;;;;;5052756;28;20187;-61
2023/11/08 02:34:54;;;;;;;2.53;1.10;;;18.10;51.60;;;;;;5052387;28;20211;-62
2023/11/08 02:37:21;;;;;;;3.17;1.48;;;18.10;51.60;;;;;;5051416;28;20184;-61
2023/11/08 02:39:48;;;;;;;5.38;1.55;;;18.10;51.70;;;;;;5052015;28;20697;-62
2023/11/08 02:42:16;;;;;;;3.85;1.20;;;18.10;51.60;;;;;;5052163;28;20221;-62
2023/11/08 02:44:44;;;;;;;5.22;1.33;;;18.00;51.60;;;;;;5052506;28;20226;-62
2023/11/08 02:47:11;;;;;;;2.95;1.10;;;18.00;51.60;;;;;;5052860;28;20192;-62
2023/11/08 02:49:37;;;;;;;4.53;1.30;;;18.00;51.60;;;;;;5052248;28;20222;-62
2023/11/08 02:52:05;;;;;;;4.60;1.60;;;18.00;51.60;;;;;;5052417;28;20753;-61
2023/11/08 02:54:31;;;;;;;4.35;1.40;;;18.00;51.60;;;;;;5052612;28;20227;-61
2023/11/08 02:56:58;;;;;;;5.13;1.50;;;18.00;51.60;;;;;;5051585;28;20215;-62
2023/11/08 02:59:28;;;;;;;4.22;1.30;;;18.00;51.60;;;;;;5052509;28;20188;-62
2023/11/08 03:01:55;;;;;;;6.22;1.40;;;18.00;51.60;;;;;;5052315;28;20266;-61
2023/11/08 03:04:24;;;;;;;3.33;1.20;;;18.00;51.60;;;;;;5052167;28;20285;-62
2023/11/08 03:06:51;;;;;;;2.40;1.15;;;18.00;51.60;;;;;;5052443;28;20274;-61
2023/11/08 03:09:18;;;;;;;2.78;1.08;;;18.00;51.60;;;;;;5052232;28;20287;-62
2023/11/08 03:11:46;;;;;;;4.32;1.30;;;18.00;51.60;;;;;;5052180;28;20195;-62
2023/11/08 03:14:14;;;;;;;3.28;1.20;;;18.00;51.60;;;;;;5052246;28;20204;-62
2023/11/08 03:16:42;;;;;;;4.68;1.38;;;18.00;51.60;;;;;;5052205;28;20219;-61
2023/11/08 03:19:10;;;;;;;4.18;1.50;;;18.00;51.60;;;;;;5051929;28;20198;-61
2023/11/08 03:21:37;;;;;;;3.70;1.58;;;18.00;51.60;;;;;;5052245;28;20306;-62
2023/11/08 03:24:04;;;;;;;5.47;1.40;;;18.00;51.60;;;;;;5052311;28;20576;-62
2023/11/08 03:26:33;;;;;;;4.07;1.40;;;18.00;51.60;;;;;;5052039;28;20215;-62
2023/11/08 03:29:00;;;;;;;4.30;1.38;;;18.00;51.60;;;;;;5051396;28;20662;-61
2023/11/08 03:31:26;;;;;;;4.32;1.42;;;18.00;51.70;;;;;;5052378;28;20273;-62
2023/11/08 03:33:56;;;;;;;4.28;1.33;;;18.00;51.70;;;;;;5051856;28;20586;-62
2023/11/08 03:36:23;;;;;;;4.05;1.30;;;18.00;51.70;;;;;;5052338;28;20228;-61
2023/11/08 03:38:50;;;;;;;4.15;1.40;;;18.00;51.70;;;;;;5052150;28;20275;-62
2023/11/08 03:41:17;;;;;;;3.13;1.20;;;18.00;51.70;;;;;;5051828;28;20223;-62
2023/11/08 03:43:45;;;;;;;3.42;1.40;;;18.00;51.70;;;;;;5052092;28;20216;-62
2023/11/08 03:46:12;;;;;;;4.78;1.55;;;18.00;51.70;;;;;;5052252;28;20302;-62
2023/11/08 03:48:39;;;;;;;4.45;1.33;;;18.00;51.80;;;;;;5051716;28;20194;-61
2023/11/08 03:51:08;;;;;;;7.63;1.52;;;18.00;51.80;;;;;;5052150;28;20223;-62
2023/11/08 03:53:35;;;;;;;6.13;1.70;;;18.00;51.80;;;;;;5052019;28;20195;-61
2023/11/08 03:56:02;;;;;;;3.17;1.00;;;18.00;51.80;;;;;;5051829;28;20222;-62
2023/11/08 03:58:29;;;;;;;2.30;1.00;;;18.00;51.80;;;;;;5051671;28;20689;-62
2023/11/08 04:00:56;;;;;;;2.53;0.98;;;18.00;51.80;;;;;;5051623;28;20216;-62
2023/11/08 04:03:23;;;;;;;6.03;1.50;;;18.00;51.80;;;;;;5051119;28;20322;-62
2023/11/08 04:05:52;;;;;;;6.93;1.42;;;18.00;51.80;;;;;;5051662;28;20895;-61
2023/11/08 04:08:20;;;;;;;4.07;1.27;;;18.00;51.80;;;;;;5051561;28;20562;-62
2023/11/08 04:10:47;;;;;;;5.03;1.38;;;17.90;51.70;;;;;;5051601;28;20226;-61
2023/11/08 04:13:14;;;;;;;2.45;1.15;;;17.90;51.80;;;;;;5051870;28;20279;-62
2023/11/08 04:15:41;;;;;;;4.07;1.25;;;17.90;51.80;;;;;;5051780;28;20311;-62
2023/11/08 04:18:08;;;;;;;5.55;1.20;;;17.90;51.80;;;;;;5051374;28;20195;-62
2023/11/08 04:20:35;;;;;;;3.47;1.10;;;17.90;51.80;;;;;;5051720;28;20216;-62
2023/11/08 04:23:01;;;;;;;2.97;1.23;;;17.90;51.80;;;;;;5051401;28;20585;-62
2023/11/08 04:25:30;;;;;;;7.15;1.63;;;17.90;51.90;;;;;;5051416;28;20581;-61
2023/11/08 04:27:57;;;;;;;4.22;1.40;;;17.90;51.80;;;;;;5051427;28;20188;-61
2023/11/08 04:30:24;;;;;;;6.35;1.30;;;17.90;51.90;;;;;;5051651;28;20219;-62
2023/11/08 04:32:51;;;;;;;4.65;1.20;;;17.90;51.90;;;;;;5050976;28;20558;-61
2023/11/08 04:35:17;;;;;;;3.45;1.20;;;17.90;51.90;;;;;;5051685;28;20365;-61
2023/11/08 04:37:45;;;;;;;4.75;1.23;;;17.90;51.90;;;;;;5051622;28;20224;-60
2023/11/08 04:40:12;;;;;;;5.53;1.33;;;17.90;51.90;;;;;;5052861;28;20777;-62
2023/11/08 04:42:40;;;;;;;3.10;1.15;;;17.90;51.90;;;;;;5055132;28;20233;-62
2023/11/08 04:45:08;;;;;;;3.30;1.42;;;17.90;52.00;;;;;;5055073;28;20212;-62
2023/11/08 04:47:37;;;;;;;4.43;1.65;;;17.90;52.00;;;;;;5054722;28;20188;-61
2023/11/08 04:50:05;;;;;;;3.42;1.10;;;17.90;52.00;;;;;;5054880;28;20225;-61
2023/11/08 04:52:32;;;;;;;2.63;1.20;;;17.90;52.70;;;;;;5054750;28;20192;-62
2023/11/08 04:54:59;;;;;;;4.80;1.30;;;17.90;52.00;;;;;;5054240;28;20219;-62
2023/11/08 04:57:27;;;;;;;2.63;1.30;;;17.90;52.10;;;;;;5054899;28;20209;-61
2023/11/08 04:59:56;;;;;;;5.95;1.55;;;17.90;52.10;;;;;;5054770;28;20199;-62
2023/11/08 05:02:22;;;;;;;3.63;1.30;;;17.90;52.10;;;;;;5054066;28;20318;-62
2023/11/08 05:04:50;;;;;;;5.00;1.40;;;17.90;52.10;;;;;;5054854;28;20206;-62
2023/11/08 05:07:19;;;;;;;3.38;1.20;;;17.90;52.10;;;;;;5054414;28;20726;-62
2023/11/08 05:09:46;;;;;;;4.75;1.30;;;17.90;52.20;;;;;;5053930;28;20183;-62
2023/11/08 05:12:13;;;;;;;3.17;1.17;;;17.90;52.10;;;;;;5054725;28;20184;-62
2023/11/08 05:14:41;;;;;;;4.18;1.45;;;17.80;52.10;;;;;;5054529;28;20192;-62
2023/11/08 05:17:09;;;;;;;3.80;1.40;;;17.90;52.20;;;;;;5054129;28;20274;-62
2023/11/08 05:19:36;;;;;;;4.40;1.73;;;17.80;52.10;;;;;;5054393;28;20198;-62
2023/11/08 05:22:03;;;;;;;3.75;1.58;;;17.90;52.30;;;;;;5054143;28;20735;-61
2023/11/08 05:24:30;;;;;;;2.30;1.30;;;17.90;52.30;;;;;;5053997;28;20277;-62
2023/11/08 05:26:58;;;;;;;3.17;1.23;;;17.90;52.30;;;;;;5054436;28;20212;-61
2023/11/08 05:29:25;;;;;;;2.05;1.17;;;17.90;52.30;;;;;;5054206;28;20195;-62
2023/11/08 05:31:53;;;;;;;4.10;1.42;;;17.90;52.30;;;;;;5054166;28;20219;-62
2023/11/08 05:34:21;;;;;;;2.88;1.25;;;17.90;52.30;;;;;;5054192;28;20220;-62
2023/11/08 05:36:48;;;;;;;3.42;1.27;;;17.90;52.40;;;;;;5054353;28;20216;-60
2023/11/08 05:39:21;;;;;;;3.97;1.50;;;17.80;52.30;;;;;;5053380;28;20539;-62
2023/11/08 05:41:49;;;;;;;5.53;1.50;;;17.90;52.40;;;;;;5054139;28;20215;-61
2023/11/08 05:44:16;;;;;;;4.45;1.40;;;17.90;52.40;;;;;;5053973;28;20302;-62
2023/11/08 05:46:43;;;;;;;4.07;1.25;;;17.90;53.00;;;;;;5053553;28;20211;-61
2023/11/08 05:49:10;;;;;;;3.35;1.42;;;18.00;52.40;;;;;;5053536;28;20192;-62
2023/11/08 05:51:38;;;;;;;6.15;1.40;;;18.00;52.40;;;;;;5053582;28;20220;-62
2023/11/08 05:54:06;;;;;;;2.53;1.20;;;18.00;52.40;;;;;;5053526;28;20623;-61
2023/11/08 05:56:34;;;;;;;4.32;1.33;;;18.10;52.40;;;;;;5053854;28;20211;-62
2023/11/08 05:59:01;;;;;;;3.83;1.30;;;18.10;52.40;;;;;;5053686;28;20191;-62
2023/11/08 06:01:28;;;;;;;3.33;1.33;;;18.20;52.50;;;;;;5053176;28;20227;-62
2023/11/08 06:03:55;;;;;;;3.28;1.30;;;18.30;52.40;;;;;;5053608;28;20306;-62
2023/11/08 06:06:22;;;;;;;5.47;1.40;;;18.30;52.30;;;;;;5053756;28;20219;-62
2023/11/08 06:08:52;;;;;;;3.17;1.27;;;18.40;52.40;;;;;;5053213;28;20206;-60
2023/11/08 06:11:19;;;;;;;2.50;1.08;;;18.40;52.20;;;;;;5053452;28;20216;-62
2023/11/08 06:13:46;;;;;;;4.25;1.42;;;18.50;52.20;;;;;;5053480;28;20270;-61
2023/11/08 06:16:13;;;;;;;4.15;1.10;;;18.60;52.20;;;;;;5052687;28;20298;-62
2023/11/08 06:18:40;;;;;;;3.25;1.48;;;18.70;52.10;;;;;;5053061;28;20717;-62
2023/11/08 06:21:08;;;;;;;3.08;1.08;;;18.80;52.00;;;;;;5052863;28;20765;-61
2023/11/08 06:23:36;;;;;;;3.38;1.20;;;18.80;51.90;;;;;;5052618;28;20697;-62
2023/11/08 06:26:05;;;;;;;5.43;1.83;;;18.90;51.70;;;;;;5053114;28;20215;-61
2023/11/08 06:28:32;;;;;;;4.15;1.25;;;19.00;51.70;;;;;;5053180;28;20192;-62
2023/11/08 06:30:59;;;;;;;4.45;1.42;;;19.00;51.60;;;;;;5052363;28;20592;-61
2023/11/08 06:33:26;;;;;;;3.40;1.23;;;19.10;51.60;;;;;;5053067;28;20195;-62
2023/11/08 06:35:53;;;;;;;4.88;1.23;;;19.10;51.60;;;;;;5052990;28;20219;-62
2023/11/08 06:38:20;;;;;;;4.85;1.30;;;19.10;51.50;;;;;;5052718;28;20188;-62
2023/11/08 06:40:47;;;;;;;2.30;1.20;;;19.20;51.50;;;;;;5052872;28;20226;-62
2023/11/08 06:43:15;;;;;;;2.53;1.20;;;19.20;51.40;;;;;;5052829;28;20298;-62
2023/11/08 06:45:42;;;;;;;3.75;1.42;;;19.30;51.30;;;;;;5052185;28;20640;-61
2023/11/08 06:48:09;;;;;;;3.22;1.48;;;19.40;51.20;;;;;;5052510;28;20570;-62
2023/11/08 06:50:36;;;;;;;5.45;1.20;;;19.50;51.10;;;;;;5052999;28;20591;-62
2023/11/08 06:53:03;;;;;;;4.18;1.08;;;19.60;51.00;;;;;;5052201;28;20646;-62
2023/11/08 06:55:32;;;;;;;2.20;1.10;;;19.60;50.90;;;;;;5052673;28;20220;-62
2023/11/08 06:58:00;;;;;;;2.33;1.15;;;19.60;50.70;;;;;;5052622;28;20195;-62
2023/11/08 07:00:29;;;;;;;4.13;1.20;;;19.60;50.70;;;;;;5052221;28;20298;-62
2023/11/08 07:02:56;;;;;;;2.03;0.80;;;19.60;50.60;;;;;;5051352;28;20784;-62
2023/11/08 07:05:23;;;;;;;4.97;1.13;;;19.60;50.70;;;;;;5052715;28;20218;-62
2023/11/08 07:07:50;;;;;;;4.40;1.48;;;19.60;50.90;;;;;;5052152;28;20198;-61
2023/11/08 07:10:16;;;;;;;3.22;1.20;;;19.50;50.90;;;;;;5052431;28;20183;-62
2023/11/08 07:12:43;;;;;;;4.65;1.40;;;19.50;50.90;;;;;;5052447;28;20563;-62
2023/11/08 07:15:12;;;;;;;4.32;1.40;;;19.50;50.90;;;;;;5052105;28;20536;-62
2023/11/08 07:17:40;;;;;;;4.13;1.20;;;19.50;51.00;;;;;;5052125;28;20192;-62
2023/11/08 07:20:09;;;;;;;4.78;1.55;;;19.50;51.00;;;;;;5052304;28;20194;-61
2023/11/08 07:22:36;;;;;;;3.42;1.25;;;19.50;51.00;;;;;;5051658;28;20743;-62
2023/11/08 07:25:03;;;;;;;6.25;1.55;;;19.50;51.00;;;;;;5052274;28;20239;-62
2023/11/08 07:27:31;;;;;;;4.20;1.10;;;19.50;51.00;;;;;;5052201;28;20237;-62
2023/11/08 07:29:58;;;;;;;3.42;1.40;;;19.50;50.90;;;;;;5051884;28;20203;-61
2023/11/08 07:32:26;;;;;;;4.50;1.10;;;19.60;51.00;;;;;;5052226;28;20251;-61
2023/11/08 07:34:54;;;;;;;3.88;1.20;;;19.60;51.00;;;;;;5052236;28;20192;-61
2023/11/08 07:37:21;;;;;;;1.85;1.10;;;19.60;51.00;;;;;;5051909;28;20222;-62
2023/11/08 07:39:47;;;;;;;4.22;1.45;;;19.60;51.00;;;;;;5051855;28;20194;-62
2023/11/08 07:42:14;;;;;;;2.40;1.20;;;19.60;51.00;;;;;;5052382;28;20225;-62
2023/11/08 07:44:42;;;;;;;3.88;1.35;;;19.60;50.90;;;;;;5051537;28;20212;-62
2023/11/08 07:47:09;;;;;;;2.92;1.23;;;19.60;51.00;;;;;;5052014;28;20301;-62
2023/11/08 07:49:37;;;;;;;5.13;1.40;;;19.60;51.00;;;;;;5071182;28;20833;-62
2023/11/08 07:52:06;;;;;;;3.50;1.20;;;19.70;51.00;;;;;;5071159;28;20223;-62
2023/11/08 07:54:35;;;;;;;3.55;1.20;;;19.70;51.00;;;;;;5071436;28;20229;-62
2023/11/08 07:57:03;;;;;;;3.38;1.42;;;19.70;50.90;;;;;;5049257;28;20227;-62
2023/11/08 07:59:31;;;;;;;5.40;1.55;;;19.70;51.00;;;;;;5062244;28;20289;-61
2023/11/08 08:02:01;;;;;;;3.50;1.10;;;19.70;51.00;;;;;;5032494;28;20239;-62
2023/11/08 08:04:32;;;;;;;8.15;1.65;;;19.60;51.00;;;;;;5069336;28;20244;-62
2023/11/08 08:07:01;;;;;;;3.80;1.50;;;19.70;51.10;;;;;;5034164;28;20221;-62
2023/11/08 08:09:38;;;;;;;4.68;1.50;;;19.70;51.20;;;;;;5031393;28;20210;-58
2023/11/08 08:12:07;;;;;;;5.53;1.45;;;19.70;51.60;;;;;;5066779;28;20219;-62
2023/11/08 08:14:38;;;;;;;5.10;1.40;;;19.70;51.60;;;;;;5048568;28;20214;-63
2023/11/08 08:17:12;;;;;;;4.95;1.27;;;19.70;51.70;;;;;;5067885;28;20316;-63
2023/11/08 08:19:41;;;;;;;6.05;1.05;;;19.80;51.80;;;;;;5072403;28;20190;-62
2023/11/08 08:22:11;;;;;;;3.08;1.25;;;19.80;51.90;;;;;;5072556;28;20268;-62
2023/11/08 08:24:41;;;;;;;5.68;1.40;;;19.80;51.80;;;;;;5026559;28;20230;-63
2023/11/08 08:27:13;;;;;;;7.70;1.60;;;19.80;51.90;;;;;;5049118;28;20223;-63
2023/11/08 08:29:42;;;;;;;11.32;1.38;;;19.90;51.90;;;;;;5065354;28;20203;-63
2023/11/08 08:32:09;;;;;;;7.28;1.42;;;19.90;51.80;;;;;;4995941;28;20698;-62
2023/11/08 08:34:48;;;;;;;6.50;1.45;;;19.90;51.80;;;;;;5070876;28;20207;-63
2023/11/08 08:37:19;;;;;;;7.68;1.50;;;19.90;52.00;;;;;;5056866;28;20238;-63
2023/11/08 08:40:10;;;;;;;11.15;1.70;;;19.90;52.20;;;;;;5062280;28;20297;-63
2023/11/08 08:42:43;;;;;;;7.13;1.55;;;19.90;52.30;;;;;;5067817;28;20230;-62
2023/11/08 08:45:16;;;;;;;9.48;1.55;;;19.90;52.40;;;;;;5068860;28;20269;-62
2023/11/08 08:50:33;;;;;;;6.57;1.70;;;20.00;52.50;;;;;;5072254;28;20198;-63
2023/11/08 08:53:04;;;;;;;39.10;2.30;;;20.00;52.40;;;;;;5031590;28;20628;-63
2023/11/08 08:55:42;;;;;;;11.95;1.77;;;20.00;52.40;;;;;;5069279;28;20211;-63
2023/11/08 08:58:13;;;;;;;10.75;1.50;;;20.00;52.50;;;;;;5068509;28;20218;-62
2023/11/08 09:00:41;;;;;;;5.65;1.42;;;20.10;52.60;;;;;;5071759;28;20195;-62
2023/11/08 09:03:14;;;;;;;10.68;1.80;;;20.10;52.60;;;;;;5016815;28;20276;-62
2023/11/08 09:05:43;;;;;;;6.85;1.92;;;20.10;52.60;;;;;;5064948;28;21718;-63
2023/11/08 09:08:10;;;;;;;11.27;1.27;;;20.20;52.60;;;;;;5070023;28;20248;-62
2023/11/08 09:10:54;;;;;;;10.35;1.70;;;20.10;52.50;;;;;;5069810;28;20690;-63
2023/11/08 09:16:09;;;;;;;11.45;1.67;;;20.10;52.50;;;;;;5069124;28;20731;-62
2023/11/08 09:18:37;;;;;;;5.20;1.40;;;20.20;52.60;;;;;;5036557;28;20199;-62
2023/11/08 09:21:07;;;;;;;8.40;1.63;;;20.20;52.70;;;;;;5036221;28;20296;-62
2023/11/08 09:23:39;;;;;;;12.38;1.48;;;20.20;52.60;;;;;;5069514;28;20206;-63
2023/11/08 09:26:17;;;;;;;4.13;1.42;;;20.30;52.70;;;;;;5048563;28;20229;-63
2023/11/08 09:28:58;;;;;;;16.17;1.35;;;20.30;52.70;;;;;;5071029;28;20183;-62
2023/11/08 09:31:32;;;;;;;6.68;1.60;;;20.30;52.70;;;;;;5036876;28;20723;-63
2023/11/08 09:34:18;;;;;;;6.30;1.40;;;20.30;52.70;;;;;;5035002;28;20597;-62
2023/11/08 09:36:56;;;;;;;4.82;1.40;;;20.30;52.70;;;;;;5069274;28;20281;-63
2023/11/08 09:39:32;;;;;;;8.27;1.48;;;20.30;52.70;;;;;;5035964;28;20289;-63
2023/11/08 09:42:35;;;;;;;9.50;1.63;;;20.40;52.70;;;;;;5034080;28;20247;-62
2023/11/08 09:45:22;;;;;;;11.25;1.83;;;20.40;52.80;;;;;;5025554;28;20317;-62
2023/11/08 09:47:55;;;;;;;10.70;1.38;;;20.40;52.70;;;;;;5070838;28;20742;-61
2023/11/08 09:50:25;;;;;;;9.82;1.52;;;20.40;52.70;;;;;;5017170;28;20292;-63
2023/11/08 09:53:03;;;;;;;5.32;1.30;;;20.40;52.70;;;;;;5069517;28;20218;-62
2023/11/08 09:55:49;;;;;;;11.80;1.67;;;20.40;52.80;;;;;;5070653;28;20213;-62
2023/11/08 09:58:23;;;;;;;5.18;1.38;;;20.40;53.10;;;;;;5070586;28;20195;-63
2023/11/08 10:00:55;;;;;;;8.88;1.67;;;20.40;52.80;;;;;;5070575;28;20195;-62
2023/11/08 10:03:31;;;;;;;10.60;1.30;;;20.40;52.80;;;;;;5070909;28;20225;-62
2023/11/08 10:06:04;;;;;;;6.90;1.95;;;20.40;53.50;;;;;;5069996;28;20226;-63
2023/11/08 10:08:34;;;;;;;6.25;1.40;;;20.50;52.90;;;;;;5064860;28;20199;-63
2023/11/08 10:11:03;;;;;;;7.90;1.70;;;20.40;52.80;;;;;;5031528;28;20724;-63
2023/11/08 10:14:03;;;;;;;8.10;1.60;;;20.50;52.80;;;;;;5003300;28;20589;-63
2023/11/08 10:16:51;;;;;;;4.28;1.55;;;20.50;52.80;;;;;;4998176;28;20239;-62
2023/11/08 10:19:23;;;;;;;6.88;1.20;;;20.50;52.90;;;;;;5063596;28;20207;-63
2023/11/08 10:21:58;;;;;;;6.85;1.50;;;20.50;52.80;;;;;;5065132;28;20227;-63
2023/11/08 10:24:29;;;;;;;5.82;1.52;;;20.50;52.80;;;;;;5068214;28;20307;-62
2023/11/08 10:27:16;;;;;;;7.15;1.33;;;20.50;52.80;;;;;;5069856;28;20669;-63
2023/11/08 10:30:01;;;;;;;4.97;1.30;;;20.50;53.40;;;;;;5051681;28;20225;-63
2023/11/08 10:32:37;;;;;;;5.78;1.25;;;20.50;52.80;;;;;;5069629;28;20227;-63
2023/11/08 10:35:20;;;;;;;5.72;1.45;;;20.50;52.90;;;;;;5069452;28;20198;-62
2023/11/08 10:37:53;;;;;;;9.55;1.65;;;20.50;53.00;;;;;;5068651;28;20250;-62
2023/11/08 10:40:22;;;;;;;8.95;1.35;;;20.50;52.90;;;;;;5070300;28;20579;-64
2023/11/08 10:42:59;;;;;;;9.85;1.75;;;20.50;53.20;;;;;;5069521;28;20234;-64
2023/11/08 10:45:49;;;;;;;5.10;1.55;;;20.60;53.40;;;;;;5064071;28;20716;-64
2023/11/08 10:48:25;;;;;;;6.68;1.55;;;20.60;53.70;;;;;;5065251;28;20264;-64
2023/11/08 10:50:54;;;;;;;10.93;2.03;;;20.60;53.70;;;;;;5044134;28;20250;-65
2023/11/08 10:53:22;;;;;;;12.18;1.60;;;20.60;53.80;;;;;;5030384;28;20286;-64
2023/11/08 10:55:53;;;;;;;18.42;1.85;;;20.60;53.70;;;;;;5034009;28;20291;-64
2023/11/08 10:58:25;;;;;;;9.43;1.38;;;20.60;53.70;;;;;;5068530;28;20578;-62
2023/11/08 11:00:59;;;;;;;7.97;1.63;;;20.60;53.60;;;;;;5013809;28;20631;-62
2023/11/08 11:03:28;;;;;;;4.70;1.35;;;20.60;53.50;;;;;;5032370;28;20222;-62
2023/11/08 11:06:18;;;;;;;5.57;1.58;;;20.60;53.40;;;;;;5063738;28;20223;-62
2023/11/08 11:09:22;;;;;;;5.15;1.35;;;20.60;53.30;;;;;;5015075;28;20195;-62
2023/11/08 11:12:00;;;;;;;7.60;1.42;;;20.50;53.20;;;;;;5045188;28;20225;-62
2023/11/08 11:17:41;;;;;;;4.35;1.52;;;20.50;53.20;;;;;;5061928;28;20623;-62
2023/11/08 11:20:15;;;;;;;8.63;1.50;;;20.50;53.20;;;;;;5066316;28;20244;-63
2023/11/08 11:22:54;;;;;;;7.55;1.50;;;20.50;53.20;;;;;;5067785;28;20225;-62
2023/11/08 11:25:53;;;;;;;4.65;1.52;;;20.50;53.20;;;;;;5039711;28;20226;-62
2023/11/08 11:28:55;;;;;;;5.93;1.80;;;20.50;53.20;;;;;;5064439;28;20198;-62
2023/11/08 11:31:43;;;;;;;9.68;1.65;;;20.40;53.10;;;;;;5060193;28;20223;-62
2023/11/08 11:34:49;;;;;;;5.25;1.83;;;20.50;53.20;;;;;;5013621;28;20199;-62
2023/11/08 11:37:25;;;;;;;5.00;1.70;;;20.50;53.20;;;;;;5055577;28;20222;-62
2023/11/08 11:40:13;;;;;;;10.50;1.90;;;20.40;53.10;;;;;;5034254;28;20199;-62
2023/11/08 11:42:52;;;;;;;4.70;1.73;;;20.40;53.10;;;;;;5032913;28;20227;-61
2023/11/08 11:45:24;;;;;;;5.05;1.55;;;20.40;53.10;;;;;;5034308;28;20635;-62
2023/11/08 11:47:53;;;;;;;5.00;1.80;;;20.40;53.10;;;;;;5068340;28;20223;-62
2023/11/08 11:50:55;;;;;;;6.32;1.90;;;20.40;53.10;;;;;;5053704;28;20198;-61
2023/11/08 11:53:26;;;;;;;4.40;1.60;;;20.40;53.20;;;;;;4994999;28;20220;-63
2023/11/08 11:56:10;;;;;;;4.72;1.63;;;20.40;53.20;;;;;;5029938;28;20200;-62
2023/11/08 11:58:38;;;;;;;5.43;1.95;;;20.40;53.20;;;;;;5029591;28;20243;-62
2023/11/08 12:01:08;;;;;;;4.93;1.65;;;20.30;53.20;;;;;;5010440;28;20200;-62
2023/11/08 12:03:38;;;;;;;5.50;1.75;;;20.30;53.20;;;;;;5027016;28;20268;-62
2023/11/08 12:06:15;;;;;;;3.72;1.88;;;20.30;53.20;;;;;;5017633;28;20787;-62
2023/11/08 12:08:44;;;;;;;5.40;1.55;;;20.30;53.20;;;;;;4980826;28;20788;-63
2023/11/08 12:11:13;;;;;;;4.40;1.60;;;20.30;53.30;;;;;;5033642;28;20191;-62
2023/11/08 12:13:50;;;;;;;7.90;1.55;;;20.30;53.30;;;;;;5067081;28;20198;-61
2023/11/08 12:16:17;;;;;;;6.78;2.03;;;20.30;53.30;;;;;;5071059;28;20201;-63
2023/11/08 12:18:49;;;;;;;5.00;1.42;;;20.30;53.20;;;;;;5068306;28;20195;-63
2023/11/08 12:21:22;;;;;;;4.28;1.50;;;20.30;53.30;;;;;;5061235;28;20237;-63
2023/11/08 12:23:51;;;;;;;7.00;1.70;;;20.20;53.20;;;;;;5066888;28;20717;-61
2023/11/08 12:26:20;;;;;;;2.95;1.33;;;20.20;53.20;;;;;;5070814;28;20233;-62
2023/11/08 12:28:48;;;;;;;5.72;1.88;;;20.20;53.30;;;;;;5072137;28;20648;-62
2023/11/08 12:31:27;;;;;;;2.85;1.50;;;20.20;53.40;;;;;;5071311;28;20191;-62
2023/11/08 12:33:55;;;;;;;4.80;1.88;;;20.20;53.50;;;;;;5070931;28;20233;-62
2023/11/08 12:36:23;;;;;;;4.72;1.92;;;20.20;53.50;;;;;;5072105;28;20191;-62
2023/11/08 12:38:50;;;;;;;6.95;1.73;;;20.20;53.50;;;;;;5071752;28;20187;-60
2023/11/08 12:41:19;;;;;;;5.13;1.58;;;20.20;53.50;;;;;;5068141;28;20282;-60
2023/11/08 12:43:57;;;;;;;3.20;1.70;;;20.20;53.60;;;;;;5067124;28;20597;-62
2023/11/08 12:46:24;;;;;;;4.70;1.60;;;20.20;53.60;;;;;;5071640;28;20207;-61
2023/11/08 12:48:56;;;;;;;2.47;1.55;;;20.20;53.60;;;;;;5071080;28;20313;-62
2023/11/08 12:51:32;;;;;;;6.75;1.60;;;20.30;53.70;;;;;;5071296;28;20225;-62
2023/11/08 12:54:01;;;;;;;4.80;1.17;;;20.30;53.70;;;;;;5061020;28;20278;-62
2023/11/08 12:56:38;;;;;;;4.78;1.85;;;20.30;53.80;;;;;;5067459;28;20203;-59
2023/11/08 12:59:16;;;;;;;5.25;1.50;;;20.30;53.80;;;;;;5070523;28;20292;-63
2023/11/08 13:01:44;;;;;;;3.38;1.40;;;20.40;53.80;;;;;;5067794;28;20214;-61
2023/11/08 13:04:12;;;;;;;4.80;1.40;;;20.40;53.80;;;;;;5063304;28;20222;-62
2023/11/08 13:06:41;;;;;;;6.50;1.48;;;20.40;53.70;;;;;;5040214;28;20320;-63
2023/11/08 13:09:09;;;;;;;3.75;1.50;;;20.40;53.70;;;;;;5061162;28;20803;-63
2023/11/08 13:11:36;;;;;;;5.35;1.67;;;20.40;53.80;;;;;;5067230;28;20199;-62